sensor_id;sensor_type;location;lat;lon;timestamp;P1;durP1;ratioP1;P2;durP2;ratioP2
35646;SDS011;28680;45.642;13.756;2023-06-22T00:00:57;19.33;;;11.25;;
35646;SDS011;28680;45.642;13.756;2023-06-22T00:03:24;16.33;;;10.38;;
35646;SDS011;28680;45.642;13.756;2023-06-22T00:05:51;15.82;;;9.90;;
35646;SDS011;28680;45.642;13.756;2023-06-22T00:08:18;16.17;;;10.68;;
35646;SDS011;28680;45.642;13.756;2023-06-22T00:10:44;15.75;;;10.38;;
35646;SDS011;28680;45.642;13.756;2023-06-22T00:13:11;18.38;;;10.52;;
35646;SDS011;28680;45.642;13.756;2023-06-22T00:15:39;14.32;;;10.63;;
35646;SDS011;28680;45.642;13.756;2023-06-22T00:18:07;16.27;;;10.10;;
35646;SDS011;28680;45.642;13.756;2023-06-22T00:20:34;16.98;;;11.23;;
35646;SDS011;28680;45.642;13.756;2023-06-22T00:23:04;13.27;;;10.43;;
35646;SDS011;28680;45.642;13.756;2023-06-22T00:25:36;14.98;;;11.07;;
35646;SDS011;28680;45.642;13.756;2023-06-22T00:28:06;17.07;;;10.50;;
35646;SDS011;28680;45.642;13.756;2023-06-22T00:30:33;17.50;;;10.65;;
35646;SDS011;28680;45.642;13.756;2023-06-22T00:32:59;15.93;;;10.15;;
35646;SDS011;28680;45.642;13.756;2023-06-22T00:35:26;15.48;;;10.13;;
35646;SDS011;28680;45.642;13.756;2023-06-22T00:37:55;17.85;;;10.98;;
35646;SDS011;28680;45.642;13.756;2023-06-22T00:40:29;16.77;;;10.50;;
35646;SDS011;28680;45.642;13.756;2023-06-22T00:42:57;18.50;;;10.73;;
35646;SDS011;28680;45.642;13.756;2023-06-22T00:45:24;16.77;;;10.20;;
35646;SDS011;28680;45.642;13.756;2023-06-22T00:47:51;15.65;;;10.57;;
35646;SDS011;28680;45.642;13.756;2023-06-22T00:50:22;17.05;;;10.70;;
35646;SDS011;28680;45.642;13.756;2023-06-22T00:52:59;20.10;;;11.02;;
35646;SDS011;28680;45.642;13.756;2023-06-22T00:55:37;15.60;;;10.00;;
35646;SDS011;28680;45.642;13.756;2023-06-22T00:58:08;19.50;;;11.20;;
35646;SDS011;28680;45.642;13.756;2023-06-22T01:00:35;13.77;;;9.98;;
35646;SDS011;28680;45.642;13.756;2023-06-22T01:03:03;15.68;;;10.77;;
35646;SDS011;28680;45.642;13.756;2023-06-22T01:05:33;14.55;;;10.15;;
35646;SDS011;28680;45.642;13.756;2023-06-22T01:10:59;13.38;;;9.40;;
35646;SDS011;28680;45.642;13.756;2023-06-22T01:13:39;14.02;;;10.27;;
35646;SDS011;28680;45.642;13.756;2023-06-22T01:16:20;16.50;;;10.27;;
35646;SDS011;28680;45.642;13.756;2023-06-22T01:18:52;18.58;;;10.25;;
35646;SDS011;28680;45.642;13.756;2023-06-22T01:21:22;15.63;;;10.45;;
35646;SDS011;28680;45.642;13.756;2023-06-22T01:26:47;19.38;;;11.50;;
35646;SDS011;28680;45.642;13.756;2023-06-22T01:30:10;15.98;;;10.73;;
35646;SDS011;28680;45.642;13.756;2023-06-22T01:32:39;21.15;;;11.27;;
35646;SDS011;28680;45.642;13.756;2023-06-22T01:35:07;16.73;;;10.90;;
35646;SDS011;28680;45.642;13.756;2023-06-22T01:37:35;15.65;;;11.10;;
35646;SDS011;28680;45.642;13.756;2023-06-22T01:40:03;17.55;;;11.15;;
35646;SDS011;28680;45.642;13.756;2023-06-22T01:42:32;21.13;;;11.40;;
35646;SDS011;28680;45.642;13.756;2023-06-22T01:44:59;20.45;;;12.10;;
35646;SDS011;28680;45.642;13.756;2023-06-22T01:47:25;19.23;;;11.48;;
35646;SDS011;28680;45.642;13.756;2023-06-22T01:49:52;16.40;;;11.65;;
35646;SDS011;28680;45.642;13.756;2023-06-22T01:52:19;19.15;;;11.88;;
35646;SDS011;28680;45.642;13.756;2023-06-22T01:54:46;18.48;;;11.85;;
35646;SDS011;28680;45.642;13.756;2023-06-22T01:57:13;19.38;;;12.05;;
35646;SDS011;28680;45.642;13.756;2023-06-22T01:59:43;18.42;;;13.10;;
35646;SDS011;28680;45.642;13.756;2023-06-22T02:02:16;18.77;;;12.20;;
35646;SDS011;28680;45.642;13.756;2023-06-22T02:04:53;16.08;;;11.85;;
35646;SDS011;28680;45.642;13.756;2023-06-22T02:07:46;14.63;;;11.18;;
35646;SDS011;28680;45.642;13.756;2023-06-22T02:10:21;18.58;;;11.90;;
35646;SDS011;28680;45.642;13.756;2023-06-22T02:12:49;16.88;;;12.13;;
35646;SDS011;28680;45.642;13.756;2023-06-22T02:15:16;20.63;;;12.43;;
35646;SDS011;28680;45.642;13.756;2023-06-22T02:17:43;15.20;;;11.43;;
35646;SDS011;28680;45.642;13.756;2023-06-22T02:20:13;14.82;;;11.55;;
35646;SDS011;28680;45.642;13.756;2023-06-22T02:22:40;16.92;;;11.95;;
35646;SDS011;28680;45.642;13.756;2023-06-22T02:25:07;19.77;;;12.73;;
35646;SDS011;28680;45.642;13.756;2023-06-22T02:27:33;23.20;;;13.70;;
35646;SDS011;28680;45.642;13.756;2023-06-22T02:29:59;18.05;;;12.07;;
35646;SDS011;28680;45.642;13.756;2023-06-22T02:32:25;14.93;;;12.13;;
35646;SDS011;28680;45.642;13.756;2023-06-22T02:34:52;20.80;;;13.23;;
35646;SDS011;28680;45.642;13.756;2023-06-22T02:37:18;21.73;;;12.15;;
35646;SDS011;28680;45.642;13.756;2023-06-22T02:39:44;22.42;;;12.02;;
35646;SDS011;28680;45.642;13.756;2023-06-22T02:42:10;16.75;;;12.38;;
35646;SDS011;28680;45.642;13.756;2023-06-22T02:44:36;18.35;;;12.63;;
35646;SDS011;28680;45.642;13.756;2023-06-22T02:47:02;18.85;;;12.23;;
35646;SDS011;28680;45.642;13.756;2023-06-22T02:49:29;18.67;;;13.02;;
35646;SDS011;28680;45.642;13.756;2023-06-22T02:51:55;21.63;;;13.43;;
35646;SDS011;28680;45.642;13.756;2023-06-22T02:54:21;17.02;;;12.82;;
35646;SDS011;28680;45.642;13.756;2023-06-22T02:56:47;21.05;;;12.73;;
35646;SDS011;28680;45.642;13.756;2023-06-22T02:59:13;16.95;;;13.00;;
35646;SDS011;28680;45.642;13.756;2023-06-22T03:01:39;18.88;;;13.70;;
35646;SDS011;28680;45.642;13.756;2023-06-22T03:04:08;20.52;;;12.75;;
35646;SDS011;28680;45.642;13.756;2023-06-22T03:06:35;21.30;;;14.32;;
35646;SDS011;28680;45.642;13.756;2023-06-22T03:09:04;18.83;;;12.43;;
35646;SDS011;28680;45.642;13.756;2023-06-22T03:11:31;19.67;;;12.25;;
35646;SDS011;28680;45.642;13.756;2023-06-22T03:13:58;20.48;;;11.95;;
35646;SDS011;28680;45.642;13.756;2023-06-22T03:16:24;19.33;;;12.50;;
35646;SDS011;28680;45.642;13.756;2023-06-22T03:18:50;18.13;;;12.77;;
35646;SDS011;28680;45.642;13.756;2023-06-22T03:21:18;17.65;;;12.95;;
35646;SDS011;28680;45.642;13.756;2023-06-22T03:23:45;20.88;;;12.75;;
35646;SDS011;28680;45.642;13.756;2023-06-22T03:26:11;19.33;;;12.43;;
35646;SDS011;28680;45.642;13.756;2023-06-22T03:28:37;16.55;;;12.13;;
35646;SDS011;28680;45.642;13.756;2023-06-22T03:31:03;20.48;;;11.80;;
35646;SDS011;28680;45.642;13.756;2023-06-22T03:33:31;15.90;;;11.85;;
35646;SDS011;28680;45.642;13.756;2023-06-22T03:35:57;19.80;;;12.50;;
35646;SDS011;28680;45.642;13.756;2023-06-22T03:38:23;20.83;;;13.15;;
35646;SDS011;28680;45.642;13.756;2023-06-22T03:40:49;20.70;;;12.85;;
35646;SDS011;28680;45.642;13.756;2023-06-22T03:43:15;19.60;;;12.50;;
35646;SDS011;28680;45.642;13.756;2023-06-22T03:45:41;19.58;;;13.30;;
35646;SDS011;28680;45.642;13.756;2023-06-22T03:48:06;20.23;;;13.43;;
35646;SDS011;28680;45.642;13.756;2023-06-22T03:50:32;17.08;;;13.52;;
35646;SDS011;28680;45.642;13.756;2023-06-22T03:52:58;20.08;;;12.77;;
35646;SDS011;28680;45.642;13.756;2023-06-22T03:55:25;18.92;;;13.30;;
35646;SDS011;28680;45.642;13.756;2023-06-22T03:57:51;20.17;;;14.10;;
35646;SDS011;28680;45.642;13.756;2023-06-22T04:00:19;19.10;;;12.75;;
35646;SDS011;28680;45.642;13.756;2023-06-22T04:02:45;15.98;;;13.13;;
35646;SDS011;28680;45.642;13.756;2023-06-22T04:05:10;16.42;;;12.50;;
35646;SDS011;28680;45.642;13.756;2023-06-22T04:07:37;17.50;;;13.55;;
35646;SDS011;28680;45.642;13.756;2023-06-22T04:10:03;18.90;;;13.77;;
35646;SDS011;28680;45.642;13.756;2023-06-22T04:12:30;17.40;;;13.23;;
35646;SDS011;28680;45.642;13.756;2023-06-22T04:14:56;17.23;;;13.45;;
35646;SDS011;28680;45.642;13.756;2023-06-22T04:17:22;19.52;;;14.98;;
35646;SDS011;28680;45.642;13.756;2023-06-22T04:19:50;21.42;;;14.30;;
35646;SDS011;28680;45.642;13.756;2023-06-22T04:22:17;20.63;;;13.48;;
35646;SDS011;28680;45.642;13.756;2023-06-22T04:24:43;23.67;;;15.07;;
35646;SDS011;28680;45.642;13.756;2023-06-22T04:27:09;22.42;;;14.13;;
35646;SDS011;28680;45.642;13.756;2023-06-22T04:29:35;17.27;;;14.25;;
35646;SDS011;28680;45.642;13.756;2023-06-22T04:32:08;23.30;;;15.00;;
35646;SDS011;28680;45.642;13.756;2023-06-22T04:34:37;27.75;;;14.13;;
35646;SDS011;28680;45.642;13.756;2023-06-22T04:37:03;20.27;;;15.02;;
35646;SDS011;28680;45.642;13.756;2023-06-22T04:39:29;20.67;;;14.40;;
35646;SDS011;28680;45.642;13.756;2023-06-22T04:41:56;16.92;;;13.43;;
35646;SDS011;28680;45.642;13.756;2023-06-22T04:44:25;20.25;;;14.57;;
35646;SDS011;28680;45.642;13.756;2023-06-22T04:46:56;21.13;;;15.05;;
35646;SDS011;28680;45.642;13.756;2023-06-22T04:49:28;22.85;;;13.80;;
35646;SDS011;28680;45.642;13.756;2023-06-22T04:52:16;19.42;;;14.45;;
35646;SDS011;28680;45.642;13.756;2023-06-22T04:54:42;18.25;;;13.20;;
35646;SDS011;28680;45.642;13.756;2023-06-22T04:57:12;17.67;;;12.75;;
35646;SDS011;28680;45.642;13.756;2023-06-22T04:59:39;16.67;;;12.65;;
35646;SDS011;28680;45.642;13.756;2023-06-22T05:02:07;19.38;;;13.25;;
35646;SDS011;28680;45.642;13.756;2023-06-22T05:04:33;23.52;;;12.88;;
35646;SDS011;28680;45.642;13.756;2023-06-22T05:07:03;16.27;;;12.32;;
35646;SDS011;28680;45.642;13.756;2023-06-22T05:09:30;21.42;;;13.65;;
35646;SDS011;28680;45.642;13.756;2023-06-22T05:11:59;17.85;;;12.95;;
35646;SDS011;28680;45.642;13.756;2023-06-22T05:14:27;19.88;;;13.00;;
35646;SDS011;28680;45.642;13.756;2023-06-22T05:16:54;17.10;;;12.25;;
35646;SDS011;28680;45.642;13.756;2023-06-22T05:19:23;17.35;;;12.43;;
35646;SDS011;28680;45.642;13.756;2023-06-22T05:21:53;17.77;;;12.48;;
35646;SDS011;28680;45.642;13.756;2023-06-22T05:24:19;20.63;;;14.30;;
35646;SDS011;28680;45.642;13.756;2023-06-22T05:26:45;20.13;;;13.50;;
35646;SDS011;28680;45.642;13.756;2023-06-22T05:29:10;25.00;;;13.73;;
35646;SDS011;28680;45.642;13.756;2023-06-22T05:31:36;19.08;;;12.95;;
35646;SDS011;28680;45.642;13.756;2023-06-22T05:34:02;22.67;;;15.70;;
35646;SDS011;28680;45.642;13.756;2023-06-22T05:36:28;25.85;;;15.20;;
35646;SDS011;28680;45.642;13.756;2023-06-22T05:38:56;22.95;;;16.48;;
35646;SDS011;28680;45.642;13.756;2023-06-22T05:41:22;25.77;;;15.05;;
35646;SDS011;28680;45.642;13.756;2023-06-22T05:43:48;21.75;;;14.18;;
35646;SDS011;28680;45.642;13.756;2023-06-22T05:46:14;23.85;;;14.60;;
35646;SDS011;28680;45.642;13.756;2023-06-22T05:48:41;27.95;;;15.65;;
35646;SDS011;28680;45.642;13.756;2023-06-22T05:51:07;25.58;;;14.30;;
35646;SDS011;28680;45.642;13.756;2023-06-22T05:53:33;29.02;;;14.68;;
35646;SDS011;28680;45.642;13.756;2023-06-22T05:55:59;25.67;;;14.77;;
35646;SDS011;28680;45.642;13.756;2023-06-22T05:58:25;25.90;;;15.23;;
35646;SDS011;28680;45.642;13.756;2023-06-22T06:00:50;22.33;;;14.60;;
35646;SDS011;28680;45.642;13.756;2023-06-22T06:03:16;21.48;;;13.15;;
35646;SDS011;28680;45.642;13.756;2023-06-22T06:05:42;23.63;;;14.13;;
35646;SDS011;28680;45.642;13.756;2023-06-22T06:08:10;22.02;;;13.82;;
35646;SDS011;28680;45.642;13.756;2023-06-22T06:10:37;26.05;;;13.93;;
35646;SDS011;28680;45.642;13.756;2023-06-22T06:13:03;26.65;;;13.88;;
35646;SDS011;28680;45.642;13.756;2023-06-22T06:15:29;27.98;;;13.30;;
35646;SDS011;28680;45.642;13.756;2023-06-22T06:17:57;24.90;;;13.73;;
35646;SDS011;28680;45.642;13.756;2023-06-22T06:20:23;24.70;;;13.80;;
35646;SDS011;28680;45.642;13.756;2023-06-22T06:22:51;20.05;;;12.57;;
35646;SDS011;28680;45.642;13.756;2023-06-22T06:25:17;30.40;;;14.00;;
35646;SDS011;28680;45.642;13.756;2023-06-22T06:27:48;25.48;;;14.63;;
35646;SDS011;28680;45.642;13.756;2023-06-22T06:30:16;24.08;;;13.50;;
35646;SDS011;28680;45.642;13.756;2023-06-22T06:32:44;18.70;;;12.52;;
35646;SDS011;28680;45.642;13.756;2023-06-22T06:35:11;17.52;;;11.73;;
35646;SDS011;28680;45.642;13.756;2023-06-22T06:37:40;16.60;;;12.25;;
35646;SDS011;28680;45.642;13.756;2023-06-22T06:40:09;18.63;;;12.70;;
35646;SDS011;28680;45.642;13.756;2023-06-22T06:42:43;16.67;;;11.73;;
35646;SDS011;28680;45.642;13.756;2023-06-22T06:45:12;16.63;;;11.70;;
35646;SDS011;28680;45.642;13.756;2023-06-22T06:47:41;18.67;;;11.98;;
35646;SDS011;28680;45.642;13.756;2023-06-22T06:50:07;20.92;;;12.80;;
35646;SDS011;28680;45.642;13.756;2023-06-22T06:52:34;18.42;;;11.32;;
35646;SDS011;28680;45.642;13.756;2023-06-22T06:55:01;20.90;;;12.40;;
35646;SDS011;28680;45.642;13.756;2023-06-22T06:57:29;23.02;;;13.75;;
35646;SDS011;28680;45.642;13.756;2023-06-22T06:59:55;18.88;;;12.25;;
35646;SDS011;28680;45.642;13.756;2023-06-22T07:02:22;12.02;;;9.13;;
35646;SDS011;28680;45.642;13.756;2023-06-22T07:04:49;12.48;;;10.20;;
35646;SDS011;28680;45.642;13.756;2023-06-22T07:07:15;16.13;;;11.27;;
35646;SDS011;28680;45.642;13.756;2023-06-22T07:09:41;17.30;;;11.55;;
35646;SDS011;28680;45.642;13.756;2023-06-22T07:12:07;22.77;;;15.50;;
35646;SDS011;28680;45.642;13.756;2023-06-22T07:14:34;15.52;;;13.25;;
35646;SDS011;28680;45.642;13.756;2023-06-22T07:16:59;14.98;;;10.90;;
35646;SDS011;28680;45.642;13.756;2023-06-22T07:19:26;18.55;;;11.52;;
35646;SDS011;28680;45.642;13.756;2023-06-22T07:21:56;15.05;;;10.80;;
35646;SDS011;28680;45.642;13.756;2023-06-22T07:24:22;14.82;;;11.43;;
35646;SDS011;28680;45.642;13.756;2023-06-22T07:26:49;17.17;;;12.48;;
35646;SDS011;28680;45.642;13.756;2023-06-22T07:29:19;16.00;;;11.02;;
35646;SDS011;28680;45.642;13.756;2023-06-22T07:31:46;12.18;;;10.27;;
35646;SDS011;28680;45.642;13.756;2023-06-22T07:34:13;17.73;;;12.40;;
35646;SDS011;28680;45.642;13.756;2023-06-22T07:36:39;18.13;;;10.70;;
35646;SDS011;28680;45.642;13.756;2023-06-22T07:39:05;15.52;;;10.55;;
35646;SDS011;28680;45.642;13.756;2023-06-22T07:41:32;19.80;;;12.23;;
35646;SDS011;28680;45.642;13.756;2023-06-22T07:43:58;18.55;;;13.90;;
35646;SDS011;28680;45.642;13.756;2023-06-22T07:46:24;14.98;;;12.15;;
35646;SDS011;28680;45.642;13.756;2023-06-22T07:48:49;13.85;;;11.23;;
35646;SDS011;28680;45.642;13.756;2023-06-22T07:51:16;15.43;;;12.10;;
35646;SDS011;28680;45.642;13.756;2023-06-22T07:53:42;16.67;;;12.63;;
35646;SDS011;28680;45.642;13.756;2023-06-22T07:56:12;15.32;;;11.93;;
35646;SDS011;28680;45.642;13.756;2023-06-22T07:58:43;15.48;;;11.25;;
35646;SDS011;28680;45.642;13.756;2023-06-22T08:01:11;14.43;;;11.40;;
35646;SDS011;28680;45.642;13.756;2023-06-22T08:03:38;14.25;;;11.20;;
35646;SDS011;28680;45.642;13.756;2023-06-22T08:06:05;16.48;;;11.65;;
35646;SDS011;28680;45.642;13.756;2023-06-22T08:08:34;17.92;;;11.93;;
35646;SDS011;28680;45.642;13.756;2023-06-22T08:11:00;17.65;;;11.57;;
35646;SDS011;28680;45.642;13.756;2023-06-22T08:13:26;15.88;;;10.63;;
35646;SDS011;28680;45.642;13.756;2023-06-22T08:15:52;17.98;;;11.43;;
35646;SDS011;28680;45.642;13.756;2023-06-22T08:18:18;18.45;;;13.02;;
35646;SDS011;28680;45.642;13.756;2023-06-22T08:20:45;14.55;;;11.65;;
35646;SDS011;28680;45.642;13.756;2023-06-22T08:23:11;17.50;;;12.90;;
35646;SDS011;28680;45.642;13.756;2023-06-22T08:25:37;20.10;;;13.35;;
35646;SDS011;28680;45.642;13.756;2023-06-22T08:28:03;18.42;;;13.13;;
35646;SDS011;28680;45.642;13.756;2023-06-22T08:30:30;13.85;;;11.07;;
35646;SDS011;28680;45.642;13.756;2023-06-22T08:32:56;18.65;;;12.65;;
35646;SDS011;28680;45.642;13.756;2023-06-22T08:35:22;16.17;;;11.13;;
35646;SDS011;28680;45.642;13.756;2023-06-22T08:37:48;14.82;;;11.27;;
35646;SDS011;28680;45.642;13.756;2023-06-22T08:40:17;14.05;;;10.80;;
35646;SDS011;28680;45.642;13.756;2023-06-22T08:42:44;17.45;;;14.02;;
35646;SDS011;28680;45.642;13.756;2023-06-22T08:45:11;16.85;;;13.13;;
35646;SDS011;28680;45.642;13.756;2023-06-22T08:47:39;18.02;;;13.10;;
35646;SDS011;28680;45.642;13.756;2023-06-22T08:50:09;15.73;;;12.65;;
35646;SDS011;28680;45.642;13.756;2023-06-22T08:52:36;14.60;;;11.13;;
35646;SDS011;28680;45.642;13.756;2023-06-22T08:55:06;16.35;;;12.85;;
35646;SDS011;28680;45.642;13.756;2023-06-22T08:57:33;15.68;;;11.10;;
35646;SDS011;28680;45.642;13.756;2023-06-22T08:59:59;12.75;;;10.75;;
35646;SDS011;28680;45.642;13.756;2023-06-22T09:02:26;15.68;;;11.75;;
35646;SDS011;28680;45.642;13.756;2023-06-22T09:04:57;12.95;;;10.35;;
35646;SDS011;28680;45.642;13.756;2023-06-22T09:07:23;16.08;;;11.73;;
35646;SDS011;28680;45.642;13.756;2023-06-22T09:09:50;16.60;;;11.40;;
35646;SDS011;28680;45.642;13.756;2023-06-22T09:12:17;15.05;;;11.52;;
35646;SDS011;28680;45.642;13.756;2023-06-22T09:14:46;15.60;;;11.98;;
35646;SDS011;28680;45.642;13.756;2023-06-22T09:17:13;16.92;;;11.82;;
35646;SDS011;28680;45.642;13.756;2023-06-22T09:19:38;17.35;;;13.48;;
35646;SDS011;28680;45.642;13.756;2023-06-22T09:22:05;16.58;;;13.43;;
35646;SDS011;28680;45.642;13.756;2023-06-22T09:24:33;21.98;;;15.77;;
35646;SDS011;28680;45.642;13.756;2023-06-22T09:26:59;19.75;;;15.50;;
35646;SDS011;28680;45.642;13.756;2023-06-22T09:29:25;16.27;;;12.40;;
35646;SDS011;28680;45.642;13.756;2023-06-22T09:31:51;15.40;;;12.57;;
35646;SDS011;28680;45.642;13.756;2023-06-22T09:34:21;14.85;;;13.05;;
35646;SDS011;28680;45.642;13.756;2023-06-22T09:36:47;18.40;;;12.52;;
35646;SDS011;28680;45.642;13.756;2023-06-22T09:39:13;17.55;;;11.98;;
35646;SDS011;28680;45.642;13.756;2023-06-22T09:41:38;15.18;;;11.45;;
35646;SDS011;28680;45.642;13.756;2023-06-22T09:44:04;20.00;;;12.07;;
35646;SDS011;28680;45.642;13.756;2023-06-22T09:46:30;16.70;;;12.55;;
35646;SDS011;28680;45.642;13.756;2023-06-22T09:48:56;18.40;;;12.38;;
35646;SDS011;28680;45.642;13.756;2023-06-22T09:51:22;19.05;;;11.55;;
35646;SDS011;28680;45.642;13.756;2023-06-22T09:53:49;15.23;;;11.55;;
35646;SDS011;28680;45.642;13.756;2023-06-22T09:56:15;18.00;;;11.93;;
35646;SDS011;28680;45.642;13.756;2023-06-22T09:58:42;14.90;;;12.27;;
35646;SDS011;28680;45.642;13.756;2023-06-22T10:01:09;18.63;;;12.23;;
35646;SDS011;28680;45.642;13.756;2023-06-22T10:03:35;18.45;;;11.43;;
35646;SDS011;28680;45.642;13.756;2023-06-22T10:06:02;15.25;;;11.25;;
35646;SDS011;28680;45.642;13.756;2023-06-22T10:08:28;14.73;;;11.20;;
35646;SDS011;28680;45.642;13.756;2023-06-22T10:10:55;15.25;;;10.48;;
35646;SDS011;28680;45.642;13.756;2023-06-22T10:13:21;18.20;;;11.70;;
35646;SDS011;28680;45.642;13.756;2023-06-22T10:15:47;14.32;;;11.57;;
35646;SDS011;28680;45.642;13.756;2023-06-22T10:18:16;15.20;;;10.30;;
35646;SDS011;28680;45.642;13.756;2023-06-22T10:20:43;19.10;;;11.00;;
35646;SDS011;28680;45.642;13.756;2023-06-22T10:23:13;19.02;;;10.20;;
35646;SDS011;28680;45.642;13.756;2023-06-22T10:25:39;13.63;;;10.30;;
35646;SDS011;28680;45.642;13.756;2023-06-22T10:28:05;13.45;;;10.20;;
35646;SDS011;28680;45.642;13.756;2023-06-22T10:30:30;11.18;;;8.88;;
35646;SDS011;28680;45.642;13.756;2023-06-22T10:32:57;15.75;;;9.65;;
35646;SDS011;28680;45.642;13.756;2023-06-22T10:35:23;11.73;;;8.40;;
35646;SDS011;28680;45.642;13.756;2023-06-22T10:37:49;16.10;;;8.95;;
35646;SDS011;28680;45.642;13.756;2023-06-22T10:40:16;13.27;;;10.15;;
35646;SDS011;28680;45.642;13.756;2023-06-22T10:42:43;13.00;;;9.50;;
35646;SDS011;28680;45.642;13.756;2023-06-22T10:45:10;11.52;;;9.60;;
35646;SDS011;28680;45.642;13.756;2023-06-22T10:47:36;13.27;;;8.18;;
35646;SDS011;28680;45.642;13.756;2023-06-22T10:50:02;10.55;;;9.13;;
35646;SDS011;28680;45.642;13.756;2023-06-22T10:52:29;10.45;;;8.88;;
35646;SDS011;28680;45.642;13.756;2023-06-22T10:54:55;12.55;;;9.60;;
35646;SDS011;28680;45.642;13.756;2023-06-22T10:57:21;11.23;;;8.60;;
35646;SDS011;28680;45.642;13.756;2023-06-22T10:59:47;12.15;;;9.25;;
35646;SDS011;28680;45.642;13.756;2023-06-22T11:02:14;12.73;;;9.32;;
35646;SDS011;28680;45.642;13.756;2023-06-22T11:04:40;12.00;;;8.73;;
35646;SDS011;28680;45.642;13.756;2023-06-22T11:07:05;13.48;;;9.25;;
35646;SDS011;28680;45.642;13.756;2023-06-22T11:09:32;10.68;;;8.68;;
35646;SDS011;28680;45.642;13.756;2023-06-22T11:11:58;11.68;;;9.13;;
35646;SDS011;28680;45.642;13.756;2023-06-22T11:14:24;12.52;;;9.90;;
35646;SDS011;28680;45.642;13.756;2023-06-22T11:16:50;16.17;;;10.15;;
35646;SDS011;28680;45.642;13.756;2023-06-22T11:19:16;11.85;;;9.00;;
35646;SDS011;28680;45.642;13.756;2023-06-22T11:21:43;12.70;;;8.75;;
35646;SDS011;28680;45.642;13.756;2023-06-22T11:24:10;10.63;;;9.48;;
35646;SDS011;28680;45.642;13.756;2023-06-22T11:26:36;12.20;;;9.65;;
35646;SDS011;28680;45.642;13.756;2023-06-22T11:29:02;12.82;;;9.50;;
35646;SDS011;28680;45.642;13.756;2023-06-22T11:31:32;14.35;;;9.60;;
35646;SDS011;28680;45.642;13.756;2023-06-22T11:33:57;10.95;;;8.63;;
35646;SDS011;28680;45.642;13.756;2023-06-22T11:36:24;11.18;;;8.80;;
35646;SDS011;28680;45.642;13.756;2023-06-22T11:38:51;11.30;;;8.80;;
35646;SDS011;28680;45.642;13.756;2023-06-22T11:41:17;11.65;;;9.00;;
35646;SDS011;28680;45.642;13.756;2023-06-22T11:43:44;12.25;;;8.95;;
35646;SDS011;28680;45.642;13.756;2023-06-22T11:46:10;9.27;;;8.25;;
35646;SDS011;28680;45.642;13.756;2023-06-22T11:48:36;11.23;;;8.70;;
35646;SDS011;28680;45.642;13.756;2023-06-22T11:51:03;13.50;;;9.30;;
35646;SDS011;28680;45.642;13.756;2023-06-22T11:53:29;10.35;;;8.90;;
35646;SDS011;28680;45.642;13.756;2023-06-22T11:55:55;11.15;;;8.70;;
35646;SDS011;28680;45.642;13.756;2023-06-22T11:58:21;12.50;;;9.32;;
35646;SDS011;28680;45.642;13.756;2023-06-22T12:00:47;12.68;;;8.60;;
35646;SDS011;28680;45.642;13.756;2023-06-22T12:03:25;13.15;;;8.93;;
35646;SDS011;28680;45.642;13.756;2023-06-22T12:05:55;11.32;;;9.20;;
35646;SDS011;28680;45.642;13.756;2023-06-22T12:49:37;11.23;;;8.00;;
35646;SDS011;28680;45.642;13.756;2023-06-22T12:52:08;15.05;;;10.00;;
35646;SDS011;28680;45.642;13.756;2023-06-22T12:54:36;9.88;;;7.43;;
35646;SDS011;28680;45.642;13.756;2023-06-22T12:57:02;9.18;;;8.27;;
35646;SDS011;28680;45.642;13.756;2023-06-22T12:59:28;11.93;;;8.35;;
35646;SDS011;28680;45.642;13.756;2023-06-22T13:01:54;13.02;;;8.63;;
35646;SDS011;28680;45.642;13.756;2023-06-22T13:04:20;9.60;;;7.95;;
35646;SDS011;28680;45.642;13.756;2023-06-22T13:06:47;10.63;;;8.60;;
35646;SDS011;28680;45.642;13.756;2023-06-22T13:09:17;10.95;;;7.95;;
35646;SDS011;28680;45.642;13.756;2023-06-22T13:11:44;9.65;;;7.85;;
35646;SDS011;28680;45.642;13.756;2023-06-22T13:14:10;10.73;;;7.90;;
35646;SDS011;28680;45.642;13.756;2023-06-22T13:16:36;12.45;;;8.55;;
35646;SDS011;28680;45.642;13.756;2023-06-22T13:19:02;13.85;;;8.32;;
35646;SDS011;28680;45.642;13.756;2023-06-22T13:21:29;10.85;;;8.27;;
35646;SDS011;28680;45.642;13.756;2023-06-22T13:23:56;9.38;;;8.18;;
35646;SDS011;28680;45.642;13.756;2023-06-22T13:26:22;11.18;;;8.75;;
35646;SDS011;28680;45.642;13.756;2023-06-22T13:28:49;8.82;;;7.85;;
35646;SDS011;28680;45.642;13.756;2023-06-22T13:31:15;11.60;;;8.50;;
35646;SDS011;28680;45.642;13.756;2023-06-22T13:33:41;12.55;;;9.60;;
35646;SDS011;28680;45.642;13.756;2023-06-22T13:36:07;12.05;;;7.80;;
35646;SDS011;28680;45.642;13.756;2023-06-22T13:38:35;9.90;;;7.75;;
35646;SDS011;28680;45.642;13.756;2023-06-22T13:41:04;10.65;;;8.20;;
35646;SDS011;28680;45.642;13.756;2023-06-22T13:43:30;11.25;;;8.32;;
35646;SDS011;28680;45.642;13.756;2023-06-22T13:45:59;13.00;;;8.80;;
35646;SDS011;28680;45.642;13.756;2023-06-22T13:48:25;13.07;;;8.38;;
35646;SDS011;28680;45.642;13.756;2023-06-22T13:50:53;11.68;;;8.55;;
35646;SDS011;28680;45.642;13.756;2023-06-22T13:53:19;11.82;;;8.70;;
35646;SDS011;28680;45.642;13.756;2023-06-22T13:55:45;10.50;;;8.52;;
35646;SDS011;28680;45.642;13.756;2023-06-22T13:58:12;9.68;;;7.95;;
35646;SDS011;28680;45.642;13.756;2023-06-22T14:00:38;11.07;;;8.27;;
35646;SDS011;28680;45.642;13.756;2023-06-22T14:03:04;9.80;;;8.75;;
35646;SDS011;28680;45.642;13.756;2023-06-22T14:05:30;9.52;;;7.15;;
35646;SDS011;28680;45.642;13.756;2023-06-22T14:07:56;10.30;;;8.40;;
35646;SDS011;28680;45.642;13.756;2023-06-22T14:10:22;9.48;;;8.40;;
35646;SDS011;28680;45.642;13.756;2023-06-22T14:12:48;11.90;;;7.95;;
35646;SDS011;28680;45.642;13.756;2023-06-22T14:15:14;10.27;;;8.07;;
35646;SDS011;28680;45.642;13.756;2023-06-22T14:17:40;12.07;;;8.00;;
35646;SDS011;28680;45.642;13.756;2023-06-22T14:20:06;9.43;;;7.30;;
35646;SDS011;28680;45.642;13.756;2023-06-22T14:22:33;9.57;;;8.10;;
35646;SDS011;28680;45.642;13.756;2023-06-22T14:25:00;11.13;;;8.43;;
35646;SDS011;28680;45.642;13.756;2023-06-22T14:27:27;12.32;;;8.32;;
35646;SDS011;28680;45.642;13.756;2023-06-22T14:29:52;9.75;;;8.30;;
35646;SDS011;28680;45.642;13.756;2023-06-22T14:32:18;13.52;;;9.35;;
35646;SDS011;28680;45.642;13.756;2023-06-22T14:34:44;14.23;;;9.80;;
35646;SDS011;28680;45.642;13.756;2023-06-22T14:37:10;15.20;;;8.68;;
35646;SDS011;28680;45.642;13.756;2023-06-22T14:39:37;9.80;;;7.57;;
35646;SDS011;28680;45.642;13.756;2023-06-22T14:42:04;10.18;;;7.90;;
35646;SDS011;28680;45.642;13.756;2023-06-22T14:44:31;11.35;;;7.63;;
35646;SDS011;28680;45.642;13.756;2023-06-22T14:46:57;12.60;;;7.72;;
35646;SDS011;28680;45.642;13.756;2023-06-22T14:49:23;10.93;;;7.38;;
35646;SDS011;28680;45.642;13.756;2023-06-22T14:51:49;9.98;;;7.22;;
35646;SDS011;28680;45.642;13.756;2023-06-22T14:54:15;8.30;;;7.50;;
35646;SDS011;28680;45.642;13.756;2023-06-22T14:56:41;19.08;;;8.13;;
35646;SDS011;28680;45.642;13.756;2023-06-22T14:59:08;8.85;;;7.20;;
35646;SDS011;28680;45.642;13.756;2023-06-22T15:01:35;11.15;;;6.13;;